Time;durP1;ratioP1;P1;durP2;ratioP2;P2;SDS_P1;SDS_P2;PMS_P1;PMS_P2;Temp;Humidity;BMP_temperature;BMP_pressure;BME280_temperature;BME280_humidity;BME280_pressure;Samples;Min_cycle;Max_cycle;Signal;HPM_P1;HPM_P2
2023/04/29 00:00:55;;;;;;;42.53;21.77;;;9.10;99.90;;;;;;5109320;28;20055;-77
2023/04/29 00:03:20;;;;;;;41.38;21.02;;;9.10;99.90;;;;;;5108917;28;20047;-77
2023/04/29 00:05:46;;;;;;;57.15;22.40;;;9.40;99.90;;;;;;5127083;28;20043;-77
2023/04/29 00:08:12;;;;;;;38.15;19.35;;;9.10;99.90;;;;;;5109729;28;20083;-77
2023/04/29 00:10:38;;;;;;;33.42;19.25;;;9.00;99.90;;;;;;5126474;28;20075;-77
2023/04/29 00:13:04;;;;;;;36.25;19.30;;;9.00;99.90;;;;;;5128436;28;20533;-77
2023/04/29 00:15:30;;;;;;;33.22;18.77;;;9.00;99.90;;;;;;5126784;28;20043;-76
2023/04/29 00:17:55;;;;;;;45.10;19.05;;;9.10;99.90;;;;;;5109326;28;20104;-77
2023/04/29 00:20:21;;;;;;;30.77;17.23;;;9.00;99.90;;;;;;5127389;28;20047;-76
2023/04/29 00:22:47;;;;;;;32.60;17.90;;;9.00;99.90;;;;;;5108378;28;20039;-77
2023/04/29 00:25:12;;;;;;;37.50;17.48;;;9.00;99.90;;;;;;5108763;28;20039;-77
2023/04/29 00:27:38;;;;;;;34.72;18.45;;;9.00;99.90;;;;;;5107679;28;20082;-78
2023/04/29 00:30:07;;;;;;;40.63;18.25;;;9.00;99.90;;;;;;5128160;28;20036;-77
2023/04/29 00:32:35;;;;;;;31.92;17.00;;;8.90;99.90;;;;;;5091885;27;20118;-77
2023/04/29 00:35:01;;;;;;;34.72;16.13;;;8.90;99.90;;;;;;5095718;27;20047;-77
2023/04/29 00:37:27;;;;;;;28.70;15.80;;;9.00;99.90;;;;;;5111472;27;20054;-76
2023/04/29 00:39:52;;;;;;;29.77;14.70;;;8.90;99.90;;;;;;5093319;27;20062;-77
2023/04/29 00:42:19;;;;;;;30.83;16.52;;;8.90;99.90;;;;;;5111603;27;20107;-77
2023/04/29 00:44:45;;;;;;;31.88;15.13;;;8.90;99.90;;;;;;5110577;27;20099;-77
2023/04/29 00:47:11;;;;;;;24.10;13.82;;;8.90;99.90;;;;;;5094695;27;20121;-76
2023/04/29 00:49:40;;;;;;;33.65;13.93;;;8.90;99.90;;;;;;5110222;27;20051;-76
2023/04/29 00:52:09;;;;;;;37.80;16.02;;;8.90;99.90;;;;;;5129483;27;20134;-76
2023/04/29 00:54:36;;;;;;;26.95;15.25;;;8.90;99.90;;;;;;5110738;27;20043;-76
2023/04/29 00:57:05;;;;;;;26.70;14.40;;;8.90;99.90;;;;;;5110072;27;20048;-76
2023/04/29 00:59:32;;;;;;;29.05;15.20;;;8.80;99.90;;;;;;5112066;27;20144;-76
2023/04/29 01:02:00;;;;;;;24.35;13.85;;;8.80;99.90;;;;;;5128449;27;20047;-77
2023/04/29 01:04:26;;;;;;;29.98;14.50;;;8.80;99.90;;;;;;5094762;27;20104;-77
2023/04/29 01:07:15;;;;;;;26.42;13.77;;;8.80;99.90;;;;;;5093100;27;20180;-78
2023/04/29 01:10:14;;;;;;;26.27;14.23;;;8.80;99.90;;;;;;5110293;27;20397;-77
2023/04/29 01:12:53;;;;;;;32.63;15.23;;;8.80;99.90;;;;;;5104600;27;20055;-77
2023/04/29 01:15:46;;;;;;;25.73;13.02;;;8.80;99.90;;;;;;5109834;27;20134;-77
2023/04/29 01:18:20;;;;;;;25.27;14.32;;;8.80;99.90;;;;;;5092947;27;20066;-77
2023/04/29 01:20:46;;;;;;;29.52;15.40;;;8.80;99.90;;;;;;5110746;27;20519;-78
2023/04/29 01:23:12;;;;;;;25.67;14.50;;;8.80;99.90;;;;;;5109407;27;20130;-77
2023/04/29 01:25:38;;;;;;;27.75;16.02;;;9.20;99.90;;;;;;5093932;27;20043;-77
2023/04/29 01:28:15;;;;;;;34.25;15.85;;;9.30;99.90;;;;;;5109926;27;20155;-77
2023/04/29 01:30:51;;;;;;;28.38;15.05;;;8.70;99.90;;;;;;5110317;27;20050;-77
2023/04/29 01:33:42;;;;;;;32.13;15.90;;;8.70;99.90;;;;;;5129112;27;20047;-78
2023/04/29 01:36:29;;;;;;;28.08;16.15;;;8.70;99.90;;;;;;5108216;27;20053;-77
2023/04/29 01:39:25;;;;;;;30.35;14.55;;;8.70;99.90;;;;;;5110787;27;20055;-77
2023/04/29 01:41:56;;;;;;;33.60;15.55;;;8.70;99.90;;;;;;5129060;27;20047;-77
2023/04/29 01:44:26;;;;;;;24.48;14.90;;;8.60;99.90;;;;;;5126109;27;20054;-78
2023/04/29 01:46:55;;;;;;;30.35;15.20;;;8.50;99.90;;;;;;5129559;27;20027;-77
2023/04/29 01:49:25;;;;;;;31.25;15.60;;;8.50;99.90;;;;;;5092315;27;20046;-77
2023/04/29 01:51:51;;;;;;;30.48;16.02;;;8.40;99.90;;;;;;5110657;27;20043;-76
2023/04/29 01:54:17;;;;;;;27.45;16.35;;;8.40;99.90;;;;;;5109817;27;20190;-76
2023/04/29 01:56:43;;;;;;;25.13;14.88;;;8.30;99.90;;;;;;5127985;27;20047;-76
2023/04/29 01:59:09;;;;;;;28.45;15.15;;;8.30;99.90;;;;;;5128548;27;20130;-76
2023/04/29 02:01:35;;;;;;;28.67;15.38;;;8.20;99.90;;;;;;5127234;27;20413;-76
2023/04/29 02:04:02;;;;;;;34.08;16.92;;;8.20;99.90;;;;;;5128904;27;20035;-76
2023/04/29 02:06:28;;;;;;;26.38;15.90;;;8.10;99.90;;;;;;5091491;27;20089;-77
2023/04/29 02:08:54;;;;;;;40.03;19.08;;;8.10;99.90;;;;;;5109839;27;20578;-76
2023/04/29 02:11:19;;;;;;;34.53;16.10;;;8.70;99.90;;;;;;5109169;27;20086;-77
2023/04/29 02:13:46;;;;;;;35.50;16.52;;;8.30;99.90;;;;;;5127413;27;20125;-77
2023/04/29 02:16:13;;;;;;;37.22;16.17;;;8.00;99.90;;;;;;5092580;27;20040;-77
2023/04/29 02:18:39;;;;;;;25.13;14.75;;;7.90;99.90;;;;;;5126857;27;20055;-77
2023/04/29 02:21:06;;;;;;;27.80;15.05;;;8.00;99.90;;;;;;5110271;27;20211;-77
2023/04/29 02:23:32;;;;;;;27.77;16.58;;;7.90;99.90;;;;;;5074793;27;20415;-77
2023/04/29 02:25:58;;;;;;;32.45;16.02;;;9.30;99.90;;;;;;5076082;27;20199;-77
2023/04/29 02:28:24;;;;;;;29.42;15.68;;;8.30;99.90;;;;;;5092099;27;20043;-76
2023/04/29 02:30:50;;;;;;;31.20;14.90;;;8.00;99.90;;;;;;5109329;27;20512;-77
2023/04/29 02:33:17;;;;;;;36.40;16.20;;;8.00;99.90;;;;;;5127976;27;20035;-77
2023/04/29 02:35:43;;;;;;;38.55;18.23;;;9.10;99.90;;;;;;5108197;27;20047;-77
2023/04/29 02:38:10;;;;;;;31.58;16.60;;;8.00;99.90;;;;;;5092319;27;20565;-76
2023/04/29 02:40:43;;;;;;;36.20;18.15;;;9.00;99.90;;;;;;5108201;27;20053;-77
2023/04/29 02:43:09;;;;;;;28.48;15.48;;;8.00;99.90;;;;;;5109514;27;20062;-77
2023/04/29 02:45:35;;;;;;;30.33;16.17;;;8.00;99.90;;;;;;5127126;27;20119;-77
2023/04/29 02:48:01;;;;;;;39.03;17.40;;;8.00;99.90;;;;;;5108293;27;20482;-76
2023/04/29 02:50:27;;;;;;;32.80;16.88;;;8.00;99.90;;;;;;5075108;27;20122;-77
2023/04/29 02:52:53;;;;;;;34.90;19.17;;;8.90;99.90;;;;;;5108096;27;20109;-77
2023/04/29 02:55:19;;;;;;;34.17;16.10;;;8.10;99.90;;;;;;5091966;27;20054;-77
2023/04/29 02:57:45;;;;;;;32.97;15.65;;;8.10;99.90;;;;;;5107820;27;20044;-77
2023/04/29 03:00:11;;;;;;;34.75;17.88;;;8.10;99.90;;;;;;5127999;27;20473;-77
2023/04/29 03:02:36;;;;;;;31.27;16.45;;;8.20;99.90;;;;;;5126832;27;20079;-77
2023/04/29 03:05:05;;;;;;;28.77;17.98;;;8.20;99.90;;;;;;5108308;27;20043;-77
2023/04/29 03:07:31;;;;;;;30.17;16.92;;;8.20;99.90;;;;;;5109243;27;20171;-77
2023/04/29 03:09:57;;;;;;;38.65;18.20;;;8.50;99.90;;;;;;5107848;27;20078;-76
2023/04/29 03:12:23;;;;;;;34.20;18.63;;;9.40;99.90;;;;;;5108938;27;20168;-77
2023/04/29 03:14:50;;;;;;;39.55;17.27;;;8.30;99.90;;;;;;5090016;27;20126;-77
2023/04/29 03:17:16;;;;;;;43.38;17.08;;;8.30;99.90;;;;;;5108766;28;20509;-79
2023/04/29 03:19:42;;;;;;;34.22;17.15;;;8.30;99.90;;;;;;5107631;27;20087;-76
2023/04/29 03:22:10;;;;;;;31.10;16.83;;;8.30;99.90;;;;;;5126359;27;20035;-77
2023/04/29 03:24:36;;;;;;;32.42;16.70;;;8.30;99.90;;;;;;5108641;28;20045;-76
2023/04/29 03:27:03;;;;;;;25.23;16.50;;;8.40;99.90;;;;;;5125872;27;20184;-77
2023/04/29 03:29:29;;;;;;;30.88;15.70;;;9.00;99.90;;;;;;5109414;28;20059;-77
2023/04/29 03:31:56;;;;;;;30.98;15.10;;;8.40;99.90;;;;;;5106882;28;20055;-77
2023/04/29 03:34:22;;;;;;;27.85;15.07;;;8.90;99.90;;;;;;5109358;28;20047;-77
2023/04/29 03:36:48;;;;;;;28.10;13.82;;;9.00;99.90;;;;;;5107330;28;20103;-77
2023/04/29 03:39:13;;;;;;;34.30;15.40;;;9.20;99.90;;;;;;5108607;28;20447;-75
2023/04/29 03:41:39;;;;;;;25.95;13.15;;;9.20;99.90;;;;;;5091249;28;20043;-76
2023/04/29 03:44:05;;;;;;;26.88;12.32;;;8.50;99.90;;;;;;5125590;27;20039;-76
2023/04/29 03:46:31;;;;;;;25.95;12.50;;;8.40;99.90;;;;;;5127358;28;20043;-76
2023/04/29 03:48:57;;;;;;;33.50;13.82;;;8.50;99.90;;;;;;5106620;28;20614;-77
2023/04/29 03:51:24;;;;;;;21.73;12.63;;;8.50;99.90;;;;;;5109256;28;20043;-76
2023/04/29 03:53:52;;;;;;;21.60;12.13;;;9.50;99.90;;;;;;5125876;28;20477;-76
2023/04/29 03:56:18;;;;;;;18.38;11.43;;;8.50;99.90;;;;;;5126311;28;20260;-76
2023/04/29 03:58:43;;;;;;;28.55;12.05;;;8.50;99.90;;;;;;5108098;28;20240;-76
2023/04/29 04:01:10;;;;;;;22.98;11.55;;;8.50;99.90;;;;;;5125707;28;20171;-76
2023/04/29 04:03:36;;;;;;;28.25;12.50;;;9.60;99.90;;;;;;5126965;28;20039;-76
2023/04/29 04:06:02;;;;;;;20.02;11.32;;;8.60;99.90;;;;;;5125535;28;20042;-76
2023/04/29 04:08:28;;;;;;;22.73;11.63;;;8.50;99.90;;;;;;5129677;27;20046;-77
2023/04/29 04:10:54;;;;;;;25.65;11.60;;;8.90;99.90;;;;;;5129476;27;20072;-77
2023/04/29 04:13:20;;;;;;;23.38;11.35;;;8.50;99.90;;;;;;5111827;27;20050;-77
2023/04/29 04:15:50;;;;;;;22.17;11.00;;;8.60;99.90;;;;;;5130402;27;20517;-77
2023/04/29 04:18:16;;;;;;;24.25;12.10;;;8.50;99.90;;;;;;5129350;27;20061;-77
2023/04/29 04:20:42;;;;;;;24.90;12.00;;;8.60;99.90;;;;;;5095142;27;20042;-77
2023/04/29 04:23:08;;;;;;;24.67;11.45;;;8.60;99.90;;;;;;5129011;27;20413;-77
2023/04/29 04:25:33;;;;;;;26.70;12.93;;;8.60;99.90;;;;;;5130848;27;20115;-77
2023/04/29 04:27:59;;;;;;;27.20;14.52;;;8.60;99.90;;;;;;5129409;27;20032;-76
2023/04/29 04:30:25;;;;;;;25.50;11.90;;;9.70;99.90;;;;;;5094771;27;20068;-77
2023/04/29 04:32:50;;;;;;;24.08;11.95;;;8.60;99.90;;;;;;5130202;27;20130;-77
2023/04/29 04:35:17;;;;;;;26.38;11.27;;;8.60;99.90;;;;;;5110562;27;20687;-77
2023/04/29 04:37:43;;;;;;;23.45;10.70;;;8.60;99.90;;;;;;5129934;27;20051;-77
2023/04/29 04:40:10;;;;;;;21.60;11.50;;;8.60;99.90;;;;;;5110089;27;20112;-77
2023/04/29 04:42:36;;;;;;;23.30;10.93;;;8.60;99.90;;;;;;5130460;27;20049;-77
2023/04/29 04:45:02;;;;;;;21.40;11.10;;;8.80;99.90;;;;;;5128798;27;20130;-77
2023/04/29 04:47:28;;;;;;;23.50;10.43;;;8.60;99.90;;;;;;5111511;27;20094;-76
2023/04/29 04:49:54;;;;;;;20.88;11.35;;;8.60;99.90;;;;;;5129682;27;20091;-76
2023/04/29 04:52:21;;;;;;;19.58;11.43;;;8.60;99.90;;;;;;5110463;27;20553;-76
2023/04/29 04:54:46;;;;;;;20.83;11.73;;;8.70;99.90;;;;;;5111088;27;20481;-76
2023/04/29 04:57:12;;;;;;;22.88;10.82;;;8.60;99.90;;;;;;5128048;27;20055;-76
2023/04/29 04:59:38;;;;;;;17.92;11.02;;;8.70;99.90;;;;;;5130086;27;20464;-76
2023/04/29 05:02:04;;;;;;;24.88;10.43;;;8.70;99.90;;;;;;5110380;27;20046;-76
2023/04/29 05:04:29;;;;;;;23.67;12.05;;;8.70;99.90;;;;;;5111144;27;20055;-77
2023/04/29 05:06:55;;;;;;;21.75;10.48;;;9.70;99.90;;;;;;5129055;27;20043;-77
2023/04/29 05:09:21;;;;;;;19.92;10.70;;;9.30;99.90;;;;;;5093349;27;20046;-76
2023/04/29 05:11:52;;;;;;;24.23;11.80;;;8.70;99.90;;;;;;5129463;27;20047;-77
2023/04/29 05:14:21;;;;;;;20.42;10.55;;;8.70;99.90;;;;;;5128372;27;20131;-78
2023/04/29 05:16:46;;;;;;;16.95;9.82;;;8.70;99.90;;;;;;5111521;27;20118;-78
2023/04/29 05:19:12;;;;;;;20.42;9.45;;;8.80;99.90;;;;;;5109278;27;20100;-78
2023/04/29 05:21:38;;;;;;;17.90;9.98;;;8.80;99.90;;;;;;5129482;27;20046;-78
2023/04/29 05:24:05;;;;;;;20.10;9.93;;;9.40;99.90;;;;;;5110243;27;20112;-78
2023/04/29 05:26:30;;;;;;;20.50;9.88;;;8.80;99.90;;;;;;5109945;27;20082;-78
2023/04/29 05:28:56;;;;;;;19.42;10.70;;;10.20;99.90;;;;;;5129106;27;20085;-78
2023/04/29 05:31:21;;;;;;;20.45;9.45;;;8.80;99.90;;;;;;5127837;27;20047;-78
2023/04/29 05:33:47;;;;;;;20.67;10.40;;;9.40;99.90;;;;;;5129662;27;20039;-76
2023/04/29 05:36:13;;;;;;;18.08;9.98;;;8.90;99.90;;;;;;5127497;27;20093;-76
2023/04/29 05:38:39;;;;;;;18.50;10.18;;;10.20;99.90;;;;;;5110564;27;20055;-78
2023/04/29 05:41:05;;;;;;;19.52;10.32;;;9.00;99.90;;;;;;5093236;27;20439;-76
2023/04/29 05:43:30;;;;;;;17.95;10.13;;;9.00;99.90;;;;;;5127974;27;20047;-77
2023/04/29 05:45:56;;;;;;;19.55;10.23;;;9.10;99.90;;;;;;5110679;27;20047;-77
2023/04/29 05:48:22;;;;;;;18.17;10.43;;;9.10;99.90;;;;;;5109197;27;20474;-77
2023/04/29 05:50:48;;;;;;;18.55;9.27;;;9.10;99.90;;;;;;5110956;27;20039;-77
2023/04/29 05:53:14;;;;;;;17.05;10.43;;;9.20;99.90;;;;;;5126907;27;20419;-77
2023/04/29 05:55:43;;;;;;;18.45;10.23;;;9.30;99.90;;;;;;5128980;27;20379;-76
2023/04/29 05:58:09;;;;;;;16.15;8.95;;;10.20;99.90;;;;;;5092851;27;20126;-77
2023/04/29 06:00:34;;;;;;;15.25;8.52;;;9.30;99.90;;;;;;5092388;27;20549;-76
2023/04/29 06:03:00;;;;;;;16.02;9.15;;;9.40;99.90;;;;;;5109779;27;20039;-76
2023/04/29 06:05:26;;;;;;;20.45;9.07;;;9.40;99.90;;;;;;5109081;27;20077;-77
2023/04/29 06:07:52;;;;;;;17.40;9.80;;;9.50;99.90;;;;;;5110168;27;20394;-76
2023/04/29 06:10:18;;;;;;;21.65;9.55;;;9.50;99.90;;;;;;5108150;27;20045;-77
2023/04/29 06:12:43;;;;;;;20.67;11.00;;;9.50;99.90;;;;;;5128768;27;20405;-77
2023/04/29 06:15:10;;;;;;;15.82;9.15;;;9.50;99.90;;;;;;5127235;27;20051;-76
2023/04/29 06:17:36;;;;;;;17.98;9.27;;;9.50;99.90;;;;;;5127974;27;20409;-77
2023/04/29 06:20:03;;;;;;;27.55;9.52;;;10.00;99.90;;;;;;5109443;27;20035;-77
2023/04/29 06:22:29;;;;;;;23.60;10.38;;;9.50;99.90;;;;;;5108565;27;20082;-77
2023/04/29 06:24:54;;;;;;;18.73;9.00;;;9.60;99.90;;;;;;5109550;27;20090;-77
2023/04/29 06:27:20;;;;;;;21.52;8.77;;;9.70;99.90;;;;;;5126697;27;20039;-77
2023/04/29 06:29:46;;;;;;;14.82;9.02;;;9.80;99.90;;;;;;5128104;27;20133;-77
2023/04/29 06:32:12;;;;;;;15.15;8.82;;;9.90;99.90;;;;;;5107990;27;20102;-77
2023/04/29 06:34:38;;;;;;;18.13;8.10;;;10.00;99.90;;;;;;5092178;27;20076;-77
2023/04/29 06:37:04;;;;;;;22.05;10.25;;;10.10;99.90;;;;;;5109013;27;20047;-77
2023/04/29 06:39:30;;;;;;;18.60;8.35;;;10.20;99.90;;;;;;5126854;27;20055;-76
2023/04/29 06:41:57;;;;;;;16.95;8.43;;;10.20;99.90;;;;;;5109299;27;20059;-77
2023/04/29 06:44:23;;;;;;;16.33;7.60;;;10.40;99.90;;;;;;5126254;27;20092;-76
2023/04/29 06:46:49;;;;;;;15.82;7.45;;;10.40;99.90;;;;;;5109477;27;20043;-77
2023/04/29 06:49:15;;;;;;;17.27;7.97;;;10.40;99.90;;;;;;5108253;27;20053;-77
2023/04/29 06:51:41;;;;;;;17.98;8.05;;;10.50;99.90;;;;;;5127602;27;20054;-77
2023/04/29 06:54:07;;;;;;;16.58;8.60;;;10.60;99.90;;;;;;5127038;27;20522;-77
2023/04/29 06:56:33;;;;;;;20.38;8.05;;;10.70;99.90;;;;;;5126502;27;20443;-77
2023/04/29 06:58:58;;;;;;;14.65;8.55;;;10.80;99.90;;;;;;5109281;27;20043;-77
2023/04/29 07:01:24;;;;;;;12.38;7.20;;;10.80;99.90;;;;;;5107261;27;20486;-78
2023/04/29 07:03:50;;;;;;;13.68;7.32;;;10.90;99.90;;;;;;5109113;27;20046;-78
2023/04/29 07:06:15;;;;;;;16.98;7.97;;;11.00;99.90;;;;;;5107527;27;20039;-78
2023/04/29 07:08:41;;;;;;;17.10;6.85;;;11.10;99.90;;;;;;5109233;27;20088;-78
2023/04/29 07:11:07;;;;;;;14.45;7.43;;;11.10;99.90;;;;;;5108209;27;20047;-80
2023/04/29 07:13:33;;;;;;;19.02;7.13;;;11.20;99.90;;;;;;5108009;27;20092;-80
2023/04/29 07:15:59;;;;;;;11.45;6.38;;;11.20;99.90;;;;;;5108216;28;20047;-78
2023/04/29 07:18:25;;;;;;;16.30;6.45;;;11.30;99.90;;;;;;5107088;28;20053;-78
2023/04/29 07:20:51;;;;;;;12.82;5.20;;;11.30;99.90;;;;;;5127607;27;20117;-78
2023/04/29 07:23:17;;;;;;;12.93;5.32;;;11.30;99.90;;;;;;5125915;27;20092;-78
2023/04/29 07:25:43;;;;;;;10.23;5.90;;;11.40;99.90;;;;;;5108678;28;20039;-78
2023/04/29 07:28:08;;;;;;;15.05;5.38;;;11.40;99.90;;;;;;5107398;28;20058;-78
2023/04/29 07:30:37;;;;;;;21.65;6.70;;;11.40;99.90;;;;;;5090930;28;20047;-78
2023/04/29 07:33:03;;;;;;;13.80;5.05;;;11.50;99.90;;;;;;5127102;28;20451;-77
2023/04/29 07:35:29;;;;;;;11.13;5.07;;;11.50;99.90;;;;;;5125958;28;20431;-77
2023/04/29 07:37:55;;;;;;;8.30;4.53;;;11.50;99.90;;;;;;5127205;28;20179;-76
2023/04/29 07:40:22;;;;;;;12.05;4.40;;;11.50;99.90;;;;;;5125595;28;20043;-76
2023/04/29 07:42:48;;;;;;;10.32;4.55;;;11.60;99.90;;;;;;5128518;27;20044;-76
2023/04/29 07:45:13;;;;;;;13.40;4.70;;;11.60;99.90;;;;;;5130384;27;20046;-75
2023/04/29 07:47:39;;;;;;;11.82;4.78;;;11.60;99.90;;;;;;5130905;27;20385;-76
2023/04/29 07:50:05;;;;;;;11.93;4.93;;;11.80;99.90;;;;;;5131128;27;20389;-76
2023/04/29 07:52:31;;;;;;;11.57;4.82;;;11.90;99.90;;;;;;5129812;27;20409;-76
2023/04/29 07:54:57;;;;;;;10.38;3.85;;;12.00;99.90;;;;;;5131037;27;22002;-76
2023/04/29 07:57:23;;;;;;;12.85;5.00;;;12.00;99.90;;;;;;5129089;27;20050;-76
2023/04/29 07:59:55;;;;;;;10.98;4.97;;;12.20;99.90;;;;;;5113218;27;20085;-76
2023/04/29 08:02:20;;;;;;;13.50;4.60;;;12.20;99.90;;;;;;5129625;27;20565;-76
2023/04/29 08:04:46;;;;;;;11.88;4.85;;;12.30;99.90;;;;;;5112001;27;20126;-77
2023/04/29 08:07:12;;;;;;;11.95;5.88;;;12.40;99.90;;;;;;5130658;27;20049;-76
2023/04/29 08:09:38;;;;;;;16.52;5.07;;;12.50;99.90;;;;;;5129551;27;20118;-76
2023/04/29 08:12:04;;;;;;;14.43;5.00;;;12.70;99.90;;;;;;5130836;27;20400;-77
2023/04/29 08:14:30;;;;;;;9.00;4.30;;;12.90;99.90;;;;;;5129061;27;20043;-79
2023/04/29 08:16:55;;;;;;;10.20;4.60;;;12.90;99.90;;;;;;5130835;27;20047;-77
2023/04/29 08:19:21;;;;;;;11.70;4.88;;;13.00;99.90;;;;;;5129545;27;20043;-79
2023/04/29 08:21:47;;;;;;;8.50;4.93;;;13.20;99.90;;;;;;5130580;27;20052;-77
2023/04/29 08:24:13;;;;;;;10.07;4.75;;;13.30;99.90;;;;;;5130759;27;20484;-76
2023/04/29 08:26:41;;;;;;;8.20;4.63;;;13.50;99.90;;;;;;5129350;27;20039;-81
2023/04/29 08:29:07;;;;;;;11.35;5.15;;;13.60;99.90;;;;;;5112038;27;20047;-77
2023/04/29 08:31:33;;;;;;;11.75;4.43;;;13.70;99.90;;;;;;5110275;27;20478;-83
2023/04/29 08:33:59;;;;;;;9.40;5.63;;;13.70;99.90;;;;;;5112088;27;20039;-78
2023/04/29 08:36:28;;;;;;;13.25;5.35;;;13.80;99.90;;;;;;5129288;27;20039;-78
2023/04/29 08:38:54;;;;;;;13.02;4.93;;;13.70;99.90;;;;;;5111796;27;20080;-77
2023/04/29 08:41:20;;;;;;;13.20;4.65;;;13.70;99.90;;;;;;5111243;27;20461;-77
2023/04/29 08:43:46;;;;;;;6.28;4.03;;;13.80;99.90;;;;;;5128900;27;20122;-78
2023/04/29 08:46:12;;;;;;;10.80;4.18;;;14.80;99.90;;;;;;5095040;27;20401;-78
2023/04/29 08:48:39;;;;;;;8.98;4.15;;;13.90;99.90;;;;;;5092997;27;20043;-77
2023/04/29 08:51:06;;;;;;;7.93;3.85;;;14.00;99.90;;;;;;5112260;27;20086;-76
2023/04/29 08:53:31;;;;;;;7.20;3.63;;;14.00;99.90;;;;;;5128580;27;20393;-77
2023/04/29 08:56:02;;;;;;;12.93;5.47;;;14.10;99.90;;;;;;5129861;27;20039;-76
2023/04/29 08:58:32;;;;;;;11.23;3.47;;;14.00;99.90;;;;;;5129508;27;20049;-75
2023/04/29 09:00:58;;;;;;;7.93;2.63;;;14.10;99.90;;;;;;5110027;27;20122;-76
2023/04/29 09:03:41;;;;;;;5.78;2.35;;;14.10;99.90;;;;;;5130107;27;20407;-76
2023/04/29 09:06:10;;;;;;;9.73;2.55;;;14.10;99.90;;;;;;5110273;27;20079;-76
2023/04/29 09:08:36;;;;;;;7.38;2.92;;;14.20;99.90;;;;;;5130239;27;20038;-79
2023/04/29 09:11:03;;;;;;;6.93;2.22;;;14.30;99.90;;;;;;5110405;27;20114;-77
2023/04/29 09:13:30;;;;;;;7.10;2.78;;;14.30;99.90;;;;;;5129046;27;20035;-79
2023/04/29 09:15:57;;;;;;;9.63;2.92;;;14.40;99.90;;;;;;5111267;27;20047;-76
2023/04/29 09:18:42;;;;;;;11.13;2.85;;;14.30;99.90;;;;;;5092570;27;20083;-76
2023/04/29 09:21:21;;;;;;;6.93;2.78;;;14.40;99.90;;;;;;5111298;27;20099;-77
2023/04/29 09:23:50;;;;;;;9.38;3.17;;;14.60;99.90;;;;;;5109833;27;20414;-77
2023/04/29 09:26:16;;;;;;;7.72;2.83;;;14.60;99.90;;;;;;5128578;27;20074;-76
2023/04/29 09:28:46;;;;;;;6.22;3.38;;;14.60;99.90;;;;;;5110673;27;20497;-76
2023/04/29 09:31:13;;;;;;;6.57;3.47;;;14.60;99.90;;;;;;5127917;27;20096;-77
2023/04/29 09:33:56;;;;;;;6.22;2.75;;;14.50;99.90;;;;;;5129537;27;20547;-77
2023/04/29 09:36:40;;;;;;;;;;;14.60;99.90;;;;;;5128604;27;20365;-76
2023/04/29 09:39:11;;;;;;;6.47;4.28;;;14.70;99.90;;;;;;5128704;27;19927;-76
2023/04/29 09:41:58;;;;;;;6.47;3.67;;;15.00;99.90;;;;;;5110372;27;20176;-76
2023/04/29 09:44:34;;;;;;;11.27;3.97;;;15.10;99.90;;;;;;5109254;27;20393;-76
2023/04/29 09:47:08;;;;;;;9.02;3.90;;;15.10;99.90;;;;;;5129219;27;20046;-76
2023/04/29 09:49:39;;;;;;;8.73;3.97;;;15.10;99.90;;;;;;5109942;27;20076;-77
2023/04/29 09:52:10;;;;;;;9.02;3.20;;;15.10;99.90;;;;;;5109363;27;20039;-77
2023/04/29 09:54:38;;;;;;;11.75;4.38;;;15.10;99.90;;;;;;5110265;27;20043;-77
2023/04/29 09:57:06;;;;;;;10.70;3.95;;;15.10;99.90;;;;;;5108470;27;20116;-77
2023/04/29 09:59:41;;;;;;;13.05;4.00;;;14.90;99.90;;;;;;5093600;27;20125;-77
2023/04/29 10:02:14;;;;;;;11.50;4.20;;;14.90;99.90;;;;;;5109109;27;20501;-76
2023/04/29 10:04:41;;;;;;;15.77;4.90;;;15.00;99.90;;;;;;5109375;27;20043;-77
2023/04/29 10:07:08;;;;;;;8.27;3.78;;;15.00;99.90;;;;;;5109530;27;20114;-76
2023/04/29 10:09:38;;;;;;;9.23;4.55;;;15.10;99.90;;;;;;5108421;27;20107;-77
2023/04/29 10:12:06;;;;;;;12.52;4.35;;;15.20;99.90;;;;;;5129024;27;20115;-76
2023/04/29 10:14:42;;;;;;;8.57;4.60;;;15.40;99.90;;;;;;5108216;27;20043;-76
2023/04/29 10:17:15;;;;;;;7.20;4.13;;;15.40;99.90;;;;;;5109888;27;20122;-75
2023/04/29 10:19:56;;;;;;;;;;;15.40;99.90;;;;;;5093028;27;20031;-76
2023/04/29 10:22:33;;;;;;;8.80;4.40;;;15.10;99.90;;;;;;5127441;27;19995;-75
2023/04/29 10:25:01;;;;;;;10.70;3.75;;;15.00;99.90;;;;;;5128494;27;20118;-76
2023/04/29 10:27:30;;;;;;;6.57;3.55;;;15.00;99.90;;;;;;5107988;27;20047;-76
2023/04/29 10:29:57;;;;;;;10.48;4.50;;;15.00;99.90;;;;;;5109712;27;20498;-76
2023/04/29 10:32:26;;;;;;;8.63;3.13;;;15.00;99.90;;;;;;5127056;27;20043;-76
2023/04/29 10:34:54;;;;;;;7.25;4.18;;;15.10;99.90;;;;;;5126987;27;20046;-76
2023/04/29 10:37:21;;;;;;;10.90;2.70;;;15.20;99.90;;;;;;5109301;27;20391;-76
2023/04/29 10:39:58;;;;;;;6.18;2.17;;;15.30;98.90;;;;;;5107786;27;20104;-76
2023/04/29 10:42:42;;;;;;;3.53;1.55;;;15.30;97.50;;;;;;5109538;27;20099;-77
2023/04/29 10:45:36;;;;;;;3.10;1.13;;;15.40;96.50;;;;;;5108030;27;20096;-77
2023/04/29 10:48:04;;;;;;;4.88;1.63;;;15.60;95.10;;;;;;5091302;27;20320;-77
2023/04/29 10:50:33;;;;;;;5.80;2.35;;;15.80;97.00;;;;;;5109455;27;20358;-76
2023/04/29 10:53:03;;;;;;;5.72;1.90;;;15.90;95.50;;;;;;5126327;27;20046;-76
2023/04/29 10:55:30;;;;;;;4.95;1.45;;;15.90;93.80;;;;;;5128181;27;20438;-76
2023/04/29 10:57:56;;;;;;;5.40;1.75;;;15.90;93.60;;;;;;5126866;27;20104;-75
2023/04/29 11:00:26;;;;;;;5.72;1.50;;;15.90;92.90;;;;;;5126854;27;20043;-77
2023/04/29 11:03:00;;;;;;;2.78;1.17;;;15.90;92.40;;;;;;5109095;27;20051;-76
2023/04/29 11:05:36;;;;;;;3.90;1.23;;;15.90;92.50;;;;;;5107439;27;20235;-76
2023/04/29 11:08:15;;;;;;;2.70;1.23;;;16.10;91.30;;;;;;5109590;27;20043;-75
2023/04/29 11:10:41;;;;;;;2.50;0.85;;;16.20;90.60;;;;;;5091235;27;20379;-76
2023/04/29 11:13:27;;;;;;;4.45;1.38;;;16.30;90.50;;;;;;5126845;27;20561;-76
2023/04/29 11:16:10;;;;;;;4.78;1.23;;;16.40;90.40;;;;;;5127360;27;20061;-76
2023/04/29 11:18:55;;;;;;;4.85;0.88;;;16.50;87.80;;;;;;5106836;27;20043;-76
2023/04/29 11:21:22;;;;;;;2.58;1.05;;;16.60;88.00;;;;;;5109353;28;20297;-75
2023/04/29 11:23:50;;;;;;;4.93;1.17;;;16.50;85.40;;;;;;5126709;27;20039;-76
2023/04/29 11:26:20;;;;;;;6.63;1.67;;;16.30;82.70;;;;;;5108044;28;20044;-75
2023/04/29 11:28:47;;;;;;;3.78;1.55;;;16.20;85.00;;;;;;5109120;28;20397;-76
2023/04/29 11:31:12;;;;;;;4.97;1.92;;;16.10;86.40;;;;;;5073182;28;20134;-76
2023/04/29 11:33:38;;;;;;;6.95;1.95;;;16.20;88.50;;;;;;5109066;28;20134;-76
2023/04/29 11:36:04;;;;;;;3.10;1.85;;;16.10;88.50;;;;;;5125702;28;20046;-79
2023/04/29 11:38:30;;;;;;;3.05;1.33;;;16.00;89.30;;;;;;5091657;28;20059;-80
2023/04/29 11:40:58;;;;;;;2.15;1.27;;;15.20;89.50;;;;;;5126376;28;20100;-78
2023/04/29 11:43:24;;;;;;;5.53;1.33;;;16.20;88.20;;;;;;5090546;28;20051;-78
2023/04/29 11:45:51;;;;;;;5.30;1.58;;;16.10;84.90;;;;;;5108348;28;20486;-76
2023/04/29 11:48:18;;;;;;;3.70;1.95;;;16.10;86.30;;;;;;5106968;28;20051;-74
2023/04/29 11:50:49;;;;;;;5.78;2.58;;;16.10;87.60;;;;;;5092261;28;20043;-75
2023/04/29 11:53:15;;;;;;;3.97;1.48;;;16.20;89.50;;;;;;5125891;28;20039;-80
2023/04/29 11:55:45;;;;;;;3.15;1.42;;;16.20;88.60;;;;;;5127447;28;20043;-78
2023/04/29 11:58:11;;;;;;;3.20;1.52;;;16.10;87.30;;;;;;5126638;28;20043;-77
2023/04/29 12:00:37;;;;;;;4.25;1.20;;;16.10;88.50;;;;;;5107216;28;20503;-77
2023/04/29 12:03:16;;;;;;;3.53;1.55;;;16.40;89.70;;;;;;5126636;28;20103;-77
2023/04/29 12:05:53;;;;;;;5.35;1.38;;;15.70;86.40;;;;;;5125279;28;20054;-77
2023/04/29 12:08:24;;;;;;;5.28;1.27;;;16.80;83.90;;;;;;5127062;28;20046;-77
2023/04/29 12:10:51;;;;;;;5.10;1.77;;;16.70;83.70;;;;;;5107914;28;20054;-79
2023/04/29 12:13:19;;;;;;;4.18;1.30;;;16.60;85.00;;;;;;5107983;28;20375;-77
2023/04/29 12:15:49;;;;;;;4.78;1.20;;;16.60;85.20;;;;;;5126659;28;20035;-77
2023/04/29 12:18:18;;;;;;;5.63;1.33;;;16.80;83.40;;;;;;5089707;28;20141;-76
2023/04/29 12:20:44;;;;;;;3.72;1.25;;;16.70;84.20;;;;;;5127330;28;20039;-76
2023/04/29 12:23:12;;;;;;;3.22;1.35;;;16.70;83.90;;;;;;5107251;28;20039;-79
2023/04/29 12:25:38;;;;;;;9.43;1.02;;;16.70;83.70;;;;;;5126640;28;20075;-78
2023/04/29 12:28:04;;;;;;;3.95;0.95;;;16.70;84.70;;;;;;5126226;27;20396;-79
2023/04/29 12:30:33;;;;;;;4.55;1.10;;;16.90;83.30;;;;;;5111187;27;20042;-79
2023/04/29 12:32:58;;;;;;;4.38;0.95;;;17.20;82.00;;;;;;5130546;27;20516;-79
2023/04/29 12:35:25;;;;;;;3.17;2.13;;;17.40;82.20;;;;;;5110659;27;20036;-80
2023/04/29 12:37:51;;;;;;;3.25;1.50;;;17.40;79.40;;;;;;5112127;27;20439;-77
2023/04/29 12:40:19;;;;;;;2.78;0.88;;;17.50;78.80;;;;;;5110968;27;20057;-76
2023/04/29 12:42:45;;;;;;;4.07;1.30;;;17.60;77.40;;;;;;5111946;27;20507;-77
2023/04/29 12:45:31;;;;;;;5.90;0.98;;;17.60;76.70;;;;;;5129910;27;20436;-76